Smith Valley, Nevada Weather observations

Data are for 10 minute period ending at time listed.
 Day   Time   Solar   Ave.   Ave.  Ave.  Vector  Max.   Baro.   Total    
  of    of     Rad.   Air    Rel.  Wind   Wind   Wind  Press.  Precip.   
Year   Day            Temp.  Hum.  Speed  Dir.   Gust                    
2026   (PST)  Kw/m2    F      %     mph   deg.    mph    mb.     in.     
-------------------------------------------------------------------------
 126   17:00   0.39   74.4    23    3.4   101     7.2   855.1    0.00 
 126   17:10   0.35   74.6    25    3.2   101     6.1   855.1    0.00 
 126   17:20   0.32   74.3    24    3.6    70     6.1   855.0    0.00 
 126   17:30   0.28   74.1    26    3.5   109     6.9   855.0    0.00 
 126   17:40   0.25   73.3    28    4.2   107     7.0   854.9    0.00 
 126   17:50   0.21   73.1    28    2.4   100     4.2   854.9    0.00 
 126   18:00   0.18   72.8    27    3.2   101     5.7   854.9    0.00 
 126   18:10   0.15   72.4    30    1.9   118     3.2   854.8    0.00 
 126   18:20   0.07   71.9    32    2.6   194     4.0   854.8    0.00 
 126   18:30   0.02   68.8    39    3.7   219     4.5   854.8    0.00 
 126   18:40   0.02   65.8    47    2.3   188     2.9   854.9    0.00 
 126   18:50   0.01   64.1    52    1.6   187     3.5   854.8    0.00 
 126   19:00   0.00   63.2    51    0.1   211     0.9   854.8    0.00 
 126   19:10   0.00   62.3    58    1.6   196     2.5   854.8    0.00 
 126   19:20   0.00   59.8    68    1.3   188     2.5   854.9    0.00 
 126   19:30   0.00   59.3    61    2.1   211     2.9   855.0    0.00 
 126   19:40   0.00   59.7    59    2.2   238     2.7   855.1    0.00 
 126   19:50   0.00   59.2    55    2.8   232     3.7   855.2    0.00 
 126   20:00   0.00   57.7    60    3.7   219     5.0   855.4    0.00 
 126   20:10   0.00   57.8    53    4.8   228     5.5   855.5    0.00 
 126   20:20   0.00   57.9    53    2.5   212     4.6   855.6    0.00 
 126   20:30   0.00   57.2    54    2.5   210     4.4   855.7    0.00 
 126   20:40   0.00   56.7    56    3.2   223     4.3   855.7    0.00 
 126   20:50   0.00   55.8    58    0.9   218     2.0   855.8    0.00 
 126   21:00   0.00   55.4    58    1.8   191     3.3   855.8    0.00 
 126   21:10   0.00   56.5    55    3.4   114     5.2   856.0    0.00 
 126   21:20   0.00   54.2    67    4.8   111     7.0   856.2    0.00 
 126   21:30   0.00   53.2    73    5.2   127     6.2   856.2    0.00 
 126   21:40   0.00   52.7    74    3.2   146     6.0   856.3    0.00 
 126   21:50   0.00   52.9    72    3.3   163     4.9   856.3    0.00 
 126   22:00   0.00   51.9    76    1.8   249     6.3   856.3    0.00 
 126   22:10   0.00   50.8    79    1.6   200     2.5   856.3    0.00 
 126   22:20   0.00   50.6    80    1.6    83     2.5   856.4    0.00 
 126   22:30   0.00   49.4    82    2.1   115     2.7   856.4    0.00 
 126   22:40   0.00   49.2    81    2.7   134     4.1   856.4    0.00 
 126   22:50   0.00   49.7    81    2.7   177     4.1   856.4    0.00 
 126   23:00   0.00   49.3    83    1.3   186     2.9   856.5    0.00 
 126   23:10   0.00   50.5    76    2.1   138     3.9   856.4    0.00 
 126   23:20   0.00   51.4    74    3.0    92     4.3   856.4    0.00 
 126   23:30   0.00   47.9    83    1.9    77     4.4   856.4    0.00 
 126   23:40   0.00   47.5    83    1.3   336     2.9   856.5    0.00 
 126   23:50   0.00   47.6    82    1.3   310     2.2   856.5    0.00 
 127    0:00   0.00   47.7    84    1.8   329     2.5   856.5    0.00 
 127    0:10   0.00   46.9    86    0.7    34     2.7   856.5    0.00 
 127    0:20   0.00   45.5    87    1.7   270     3.7   856.6    0.00 
 127    0:30   0.00   45.0    87    3.2   291     4.3   856.5    0.00 
 127    0:40   0.00   45.3    86    0.5   276     1.5   856.5    0.00 
 127    0:50   0.00   45.8    84    1.2   267     1.7   856.4    0.00 
 127    1:00   0.00   45.7    84    0.9   250     2.0   856.5    0.00 
 127    1:10   0.00   46.7    81    0.9   322     1.5   856.4    0.00 
 127    1:20   0.00   45.2    85    1.4   163     3.3   856.4    0.00 
 127    1:30   0.00   44.2    89    1.6   168     2.4   856.5    0.00 
 127    1:40   0.00   43.6    90    2.3   200     3.2   856.4    0.00 
 127    1:50   0.00   42.9    90    1.5   227     2.9   856.3    0.00 
 127    2:00   0.00   42.3    92    1.0   204     3.5   856.3    0.00 
 127    2:10   0.00   43.0    90    1.3    83     3.2   856.3    0.00 
 127    2:20   0.00   42.4    91    2.7   127     3.9   856.3    0.00 
 127    2:30   0.00   42.8    92    1.2   112     2.5   856.2    0.00 
 127    2:40   0.00   43.2    91    0.9   243     2.9   856.2    0.00 
 127    2:50   0.00   41.7    91    1.9   242     3.3   856.3    0.00 
 127    3:00   0.00   41.0    94    0.7    97     1.8   856.3    0.00 
 127    3:10   0.00   42.0    91    1.6    81     4.7   856.2    0.00 
 127    3:20   0.00   42.1    91    2.5   122     3.3   856.3    0.00 
 127    3:30   0.00   41.9    92    1.0   136     2.8   856.3    0.00 
 127    3:40   0.00   41.4    92    2.0   206     3.7   856.3    0.00 
 127    3:50   0.00   40.6    92    2.8   219     4.0   856.3    0.00 
 127    4:00   0.00   39.9    94    2.0   105     3.8   856.3    0.00 
 127    4:10   0.00   40.4    93    1.1    69     2.4   856.3    0.00 
 127    4:20   0.00   40.4    93    0.0     0     0.0   856.3    0.00 
 127    4:30   0.00   40.2    93    1.0   135     2.4   856.4    0.00 
 127    4:40   0.00   39.8    94    0.8    94     2.2   856.4    0.00 
 127    4:50   0.00   40.3    93    1.4   118     2.8   856.4    0.00 
 127    5:00   0.01   40.2    92    0.3   216     1.0   856.5    0.00 
 127    5:10   0.03   39.8    93    1.0   196     1.5   856.5    0.00 
 127    5:20   0.06   40.1    93    1.5   151     3.7   856.6    0.00 
 127    5:30   0.09   42.0    91    1.9   144     4.0   856.6    0.00 
 127    5:40   0.12   43.9    89    1.9   165     2.8   856.6    0.00 
 127    5:50   0.15   45.3    89    2.0   187     3.0   856.6    0.00 
 127    6:00   0.19   47.2    86    1.6   143     2.7   856.7    0.00 
 127    6:10   0.22   48.7    81    1.9   157     3.2   856.7    0.00 
 127    6:20   0.26   50.6    76    0.9   129     2.1   856.7    0.00 
 127    6:30   0.29   53.0    71    1.3    50     2.5   856.7    0.00 
 127    6:40   0.33   53.7    69    1.4    44     2.1   856.7    0.00 
 127    6:50   0.36   55.4    63    1.3    74     3.2   856.7    0.00 
 127    7:00   0.40   56.6    57    0.9   105     2.1   856.6    0.00 
 127    7:10   0.43   57.4    56    0.7   357     2.5   856.5    0.00 
 127    7:20   0.47   58.5    53    1.0   317     3.0   856.4    0.00 
 127    7:30   0.51   58.6    52    1.4   323     4.7   856.3    0.00 
 127    7:40   0.54   58.5    57    4.1     5     6.1   856.3    0.00 
 127    7:50   0.58   58.3    56    2.5   343     5.0   856.3    0.00 
 127    8:00   0.61   59.8    55    2.0   302     3.9   856.2    0.00 
 127    8:10   0.65   60.6    52    2.6   278     4.9   856.1    0.00 
 127    8:20   0.68   61.6    51    1.2   272     3.1   856.1    0.00 
 127    8:30   0.72   62.8    48    1.4   245     3.0   856.1    0.00 
 127    8:40   0.75   64.1    45    1.7   308     3.9   856.0    0.00 
 127    8:50   0.79   64.7    42    1.6   296     3.6   856.0    0.00 
 127    9:00   0.82   66.2    39    1.1   193     4.2   856.1    0.00 
 127    9:10   0.85   67.6    37    1.8    62     3.7   856.0    0.00 
 127    9:20   0.88   68.8    37    1.4    76     4.0   855.9    0.00 
 127    9:30   0.91   69.5    36    1.7   118     4.4   855.9    0.00 
 127    9:40   0.94   70.5    35    1.5   170     3.2   855.9    0.00 
 127    9:50   0.96   71.7    32    1.9    74     5.0   856.0    0.00 
 127   10:00   0.98   72.3    31    2.9    76     6.4   855.9    0.00 
 127   10:10   1.01   72.9    30    1.9   198     5.6   855.9    0.00 
 127   10:20   1.02   73.7    29    1.6   174     5.1   855.9    0.00 
 127   10:30   1.05   74.4    28    3.0    77     5.7   855.7    0.00 
 127   10:40   1.06   75.0    25    3.2   107     6.9   855.7    0.00 
 127   10:50   1.08   75.4    24    3.7    77     8.6   855.6    0.00 
 127   11:00   1.09   75.6    25    5.8    70     9.6   855.5    0.00 
 127   11:10   1.10   76.1    24    4.6    60     9.9   855.4    0.00 
 127   11:20   1.11   76.2    25    3.9    80     8.2   855.2    0.00 
 127   11:30   1.11   76.4    23    5.8    47    10.2   855.1    0.00 
 127   11:40   1.12   76.8    23    4.9    59    10.6   854.9    0.00 
 127   11:50   1.11   75.9    27    3.8   332     8.1   854.7    0.00 
 127   12:00   1.12   76.2    25    4.0    86    10.3   854.6    0.00 
 127   12:10   1.13   77.3    22    3.8    68    10.5   854.5    0.00 
 127   12:20   1.13   77.6    23    2.3   281     8.9   854.5    0.00 
 127   12:30   1.12   77.9    24    5.2   278    13.2   854.5    0.00 
 127   12:40   1.12   78.2    24    9.3   278    15.9   854.4    0.00 
 127   12:50   1.11   78.4    23    7.0   284    11.6   854.4    0.00 
 127   13:00   1.10   78.3    22    6.8   272    12.2   854.4    0.00 
 127   13:10   1.09   79.0    22   10.2   289    18.0   854.3    0.00 
 127   13:20   1.07   78.4    22   10.1   299    18.1   854.3    0.00 
 127   13:30   1.05   78.3    23   10.0   287    17.0   854.3    0.00 
 127   13:40   1.03   78.7    21    9.0   321    18.1   854.2    0.00 
 127   13:50   1.02   78.6    23   10.2   300    17.0   854.2    0.00 
 127   14:00   1.00   78.1    23    8.7   302    14.1   854.1    0.00 
 127   14:10   0.97   78.8    22   11.2   312    16.8   853.9    0.00 
 127   14:20   0.95   79.1    23   14.0   297    22.6   853.8    0.00 
 127   14:30   0.92   78.7    22   11.8   286    17.0   853.7    0.00 
 127   14:40   0.89   78.8    21   12.4   300    23.0   853.6    0.00 
 127   14:50   0.87   78.7    21   13.9   286    20.5   853.5    0.00 
 127   15:00   0.84   78.7    21   11.4   286    18.8   853.4    0.00 
 127   15:10   0.81   78.7    20   11.0   254    17.5   853.4    0.00 
 127   15:20   0.78   78.5    19   13.5   262    18.9   853.4    0.00 
 127   15:30   0.74   78.5    18   14.6   244    21.4   853.4    0.00 
 127   15:40   0.71   78.6    19   12.3   262    18.1   853.4    0.00 
 127   15:50   0.68   78.3    18   10.3   270    15.6   853.4    0.00 
 127   16:00   0.64   78.2    19   12.3   276    17.2   853.4    0.00 
 127   16:10   0.60   78.1    19   10.8   273    19.2   853.5    0.00 
 127   16:20   0.56   77.8    19    9.9   273    20.5   853.5    0.00 
 127   16:30   0.52   77.4    19   11.3   273    17.2   853.6    0.00 
 127   16:40   0.48   77.1    18   12.0   283    18.0   853.6    0.00 
 127   16:50   0.45   76.7    19   10.3   264    18.2   853.6    0.00 

Return to Smith Valley graphs page.


Western Regional Climate Center,wrcc@dri.edu